Time;durP1;ratioP1;P1;durP2;ratioP2;P2;SDS_P1;SDS_P2;PMS_P1;PMS_P2;Temp;Humidity;BMP_temperature;BMP_pressure;BME280_temperature;BME280_humidity;BME280_pressure;Samples;Min_cycle;Max_cycle;Signal;HPM_P1;HPM_P2
2022/01/17 00:00:14;;;;;;;71.47;30.63;;;;;;;5.38;100.00;103081.47;5021849;28;20029;-60
2022/01/17 00:02:40;;;;;;;55.60;28.97;;;;;;;5.40;100.00;103082.22;5026723;28;20127;-60
2022/01/17 00:05:08;;;;;;;65.27;28.43;;;;;;;5.41;100.00;103083.91;5025250;28;20043;-60
2022/01/17 00:07:34;;;;;;;58.43;27.60;;;;;;;5.42;100.00;103085.63;5027590;28;20508;-60
2022/01/17 00:10:00;;;;;;;61.03;26.70;;;;;;;5.44;100.00;103091.66;5026604;28;20014;-60
2022/01/17 00:12:27;;;;;;;64.10;25.90;;;;;;;5.43;100.00;103082.06;5030784;28;20090;-60
2022/01/17 00:14:54;;;;;;;53.80;25.13;;;;;;;5.44;100.00;103091.66;5030793;28;20578;-61
2022/01/17 00:19:47;;;;;;;58.73;23.87;;;;;;;5.44;100.00;103094.28;5029568;28;20036;-61
2022/01/17 00:22:14;;;;;;;46.93;23.13;;;;;;;5.44;100.00;103098.72;5030293;28;20029;-60
2022/01/17 00:24:40;;;;;;;46.37;22.43;;;;;;;5.43;100.00;103086.47;5027308;28;20036;-60
2022/01/17 00:27:06;;;;;;;52.53;22.33;;;;;;;5.42;100.00;103083.00;5029926;28;20419;-61
2022/01/17 00:29:31;;;;;;;51.77;24.90;;;;;;;5.41;100.00;103078.66;5030087;28;20075;-61
2022/01/17 00:31:57;;;;;;;58.00;24.93;;;;;;;5.43;100.00;103082.06;5030517;28;20029;-61
2022/01/17 00:34:23;;;;;;;59.73;25.23;;;;;;;5.42;100.00;103075.09;5029163;28;20029;-60
2022/01/17 00:36:48;;;;;;;48.43;24.90;;;;;;;5.44;100.00;103081.13;5029438;28;20021;-61
2022/01/17 00:39:14;;;;;;;57.57;25.17;;;;;;;5.44;100.00;103088.19;5025840;28;20070;-60
2022/01/17 00:41:40;;;;;;;52.77;23.80;;;;;;;5.44;100.00;103088.19;5026100;28;20062;-61
2022/01/17 00:44:05;;;;;;;58.00;23.77;;;;;;;5.41;100.00;103093.63;5025892;28;20064;-60
2022/01/17 00:46:31;;;;;;;59.70;25.40;;;;;;;5.43;100.00;103095.22;5030385;28;20033;-60
2022/01/17 00:48:57;;;;;;;49.30;21.90;;;;;;;5.41;100.00;103097.09;5029152;28;20128;-59
2022/01/17 00:51:22;;;;;;;52.30;23.70;;;;;;;5.41;100.00;103091.81;5029959;28;20080;-60
2022/01/17 00:53:48;;;;;;;50.87;24.40;;;;;;;5.42;100.00;103097.94;5026293;28;20563;-60
2022/01/17 00:56:13;;;;;;;59.13;24.80;;;;;;;5.40;100.00;103098.03;5030226;28;20040;-60
2022/01/17 00:58:39;;;;;;;46.73;24.57;;;;;;;5.39;100.00;103095.47;5029254;28;20234;-60
2022/01/17 01:01:04;;;;;;;56.77;24.70;;;;;;;5.39;100.00;103098.13;5030770;28;20036;-60
2022/01/17 01:03:29;;;;;;;45.53;22.07;;;;;;;5.39;100.00;103093.69;5029042;28;20112;-61
2022/01/17 01:05:55;;;;;;;44.80;19.87;;;;;;;5.37;100.00;103094.72;5030790;28;20060;-61
2022/01/17 01:08:21;;;;;;;42.17;16.93;;;;;;;5.34;100.00;103106.28;5030081;28;20033;-60
2022/01/17 01:10:46;;;;;;;42.13;15.10;;;;;;;5.35;100.00;103112.38;5029168;28;20031;-61
2022/01/17 01:13:11;;;;;;;36.70;15.03;;;;;;;5.40;100.00;103107.72;5030480;28;20489;-61
2022/01/17 01:18:38;;;;;;;36.87;14.50;;;;;;;5.39;100.00;103098.97;5027980;28;20489;-61
2022/01/17 01:29:22;;;;;;;41.10;16.03;;;;;;;5.36;100.00;103088.59;5028049;28;20052;-61
2022/01/17 01:31:53;;;;;;;36.50;14.03;;;;;;;5.40;100.00;103100.66;5027655;28;20488;-60
2022/01/17 01:34:26;;;;;;;34.13;14.53;;;;;;;5.39;100.00;103101.59;5029435;28;20075;-61
2022/01/17 01:36:51;;;;;;;32.07;14.57;;;;;;;5.40;100.00;103099.81;5029162;28;20026;-61
2022/01/17 01:39:22;;;;;;;29.53;14.13;;;;;;;5.39;100.00;103103.38;5026883;28;20036;-61
2022/01/17 01:41:47;;;;;;;35.83;14.80;;;;;;;5.40;100.00;103113.00;5029593;28;20483;-61
2022/01/17 01:44:15;;;;;;;34.83;15.60;;;;;;;5.40;100.00;103126.16;5022313;28;20036;-61
2022/01/17 01:46:42;;;;;;;39.40;17.13;;;;;;;5.38;100.00;103123.63;5029160;28;20037;-61
2022/01/17 01:49:07;;;;;;;36.97;16.27;;;;;;;5.31;100.00;103124.03;5026825;28;20029;-60
2022/01/17 01:51:33;;;;;;;33.57;16.20;;;;;;;5.18;100.00;103113.25;5029627;28;20412;-61
2022/01/17 01:53:58;;;;;;;33.37;15.87;;;;;;;5.17;100.00;103116.81;5028743;28;20033;-60
2022/01/17 01:56:23;;;;;;;34.40;15.80;;;;;;;5.03;100.00;103107.00;5028258;28;20571;-60
2022/01/17 01:58:49;;;;;;;40.37;16.07;;;;;;;4.92;100.00;103110.22;5027908;28;20071;-61
2022/01/17 02:01:14;;;;;;;37.20;15.70;;;;;;;4.82;100.00;103119.47;5029085;28;20132;-61
2022/01/17 02:03:39;;;;;;;30.67;15.57;;;;;;;4.72;100.00;103131.41;5028247;28;20477;-60
2022/01/17 02:06:05;;;;;;;33.67;13.53;;;;;;;4.61;100.00;103124.03;5028815;28;20033;-60
2022/01/17 02:08:30;;;;;;;41.27;14.33;;;;;;;4.48;100.00;103119.47;5027706;28;20029;-61
2022/01/17 02:10:57;;;;;;;33.97;14.50;;;;;;;4.41;100.00;103124.16;5028665;28;20014;-60
2022/01/17 02:13:22;;;;;;;39.10;13.23;;;;;;;4.36;100.00;103113.03;5028310;28;20048;-60
2022/01/17 02:15:49;;;;;;;36.87;12.63;;;;;;;4.29;100.00;103127.38;5028830;28;20029;-61
2022/01/17 02:18:22;;;;;;;35.07;13.03;;;;;;;4.21;100.00;103125.13;5027982;28;20385;-60
2022/01/17 02:21:09;;;;;;;35.93;13.83;;;;;;;4.12;100.00;103119.47;5026244;28;20044;-60
2022/01/17 02:23:33;;;;;;;30.77;13.10;;;;;;;4.06;100.00;103122.38;5021042;28;20606;-61
2022/01/17 02:25:58;;;;;;;30.90;12.73;;;;;;;4.04;100.00;103112.75;5029245;28;20045;-60
2022/01/17 02:28:24;;;;;;;32.07;12.17;;;;;;;4.01;100.00;103102.41;5027657;28;20037;-60
2022/01/17 02:30:49;;;;;;;33.40;11.73;;;;;;;3.92;100.00;103121.25;5025898;28;20029;-61
2022/01/17 02:33:15;;;;;;;27.27;10.47;;;;;;;3.85;100.00;103129.47;5027112;28;20026;-61
2022/01/17 02:35:46;;;;;;;27.80;9.60;;;;;;;3.78;100.00;103120.19;5028455;28;20021;-61
2022/01/17 02:38:11;;;;;;;23.17;9.13;;;;;;;3.72;100.00;103119.50;5026174;28;20021;-61
2022/01/17 02:40:37;;;;;;;26.43;9.13;;;;;;;3.68;100.00;103115.31;5026995;28;21480;-60
2022/01/17 02:43:04;;;;;;;25.20;8.57;;;;;;;3.68;100.00;103123.22;5028182;28;20037;-61
2022/01/17 02:45:34;;;;;;;24.43;8.90;;;;;;;3.66;99.93;103113.69;5027362;28;20037;-61
2022/01/17 02:48:03;;;;;;;23.77;8.30;;;;;;;3.65;99.87;103120.72;5027584;28;20463;-61
2022/01/17 02:50:28;;;;;;;23.47;7.73;;;;;;;3.63;100.00;103127.81;5026246;28;20541;-61
2022/01/17 02:53:02;;;;;;;27.43;7.80;;;;;;;3.58;99.52;103121.09;5027586;28;20116;-61
2022/01/17 02:55:28;;;;;;;20.07;7.60;;;;;;;3.51;99.72;103125.75;5027344;28;20581;-61
2022/01/17 02:57:53;;;;;;;22.57;7.20;;;;;;;3.45;99.57;103123.38;5025729;28;20037;-61
2022/01/17 03:00:19;;;;;;;21.37;6.90;;;;;;;3.40;99.44;103128.00;5027219;28;20032;-61
2022/01/17 03:02:48;;;;;;;18.63;6.67;;;;;;;3.35;99.43;103128.22;5027744;28;20029;-61
2022/01/17 03:05:14;;;;;;;19.95;6.05;;;;;;;3.30;99.30;103122.31;5027663;28;20037;-60
2022/01/17 03:07:39;;;;;;;18.63;5.77;;;;;;;3.26;98.90;103120.75;5026088;28;20068;-60
2022/01/17 03:10:10;;;;;;;21.73;6.13;;;;;;;3.26;99.25;103131.25;5026758;28;20029;-60
2022/01/17 03:12:36;;;;;;;21.67;6.73;;;;;;;3.25;99.09;103126.91;5026229;28;20041;-60
2022/01/17 03:15:01;;;;;;;22.57;6.13;;;;;;;3.26;99.26;103110.25;5026834;28;20095;-60
2022/01/17 03:17:26;;;;;;;18.47;6.07;;;;;;;3.27;99.02;103097.97;5027701;28;20017;-60
2022/01/17 03:19:51;;;;;;;20.40;5.80;;;;;;;3.29;99.16;103099.59;5026868;28;20091;-60
2022/01/17 03:22:17;;;;;;;21.77;6.03;;;;;;;3.29;98.98;103112.72;5027827;28;20041;-60
2022/01/17 03:24:42;;;;;;;17.97;6.13;;;;;;;3.27;99.24;103111.09;5027311;28;20537;-61
2022/01/17 03:27:07;;;;;;;22.30;6.40;;;;;;;3.22;98.84;103111.31;5027696;28;20041;-61
2022/01/17 03:29:33;;;;;;;17.07;5.90;;;;;;;3.11;99.07;103119.63;5023912;28;20495;-61
2022/01/17 03:31:58;;;;;;;21.40;5.80;;;;;;;3.05;98.17;103121.66;5028005;28;20033;-60
2022/01/17 03:34:23;;;;;;;16.07;5.93;;;;;;;3.00;98.59;103126.25;5027279;28;20741;-61
2022/01/17 03:36:49;;;;;;;26.53;7.13;;;;;;;3.02;98.64;103124.41;5027889;28;20037;-60
2022/01/17 03:39:14;;;;;;;20.97;6.60;;;;;;;3.01;99.11;103123.56;5022924;28;20476;-60
2022/01/17 03:41:40;;;;;;;20.93;6.83;;;;;;;3.02;99.43;103127.03;5026823;28;20040;-60
2022/01/17 03:44:07;;;;;;;22.93;7.53;;;;;;;3.02;99.42;103116.56;5027223;28;20165;-61
2022/01/17 03:46:32;;;;;;;23.33;8.67;;;;;;;3.05;99.56;103121.66;5026438;28;20030;-61
2022/01/17 03:48:57;;;;;;;26.87;9.47;;;;;;;3.09;99.95;103123.22;5026325;28;20033;-60
2022/01/17 03:51:22;;;;;;;22.13;8.47;;;;;;;3.07;100.00;103117.19;5023531;28;20116;-60
2022/01/17 03:53:48;;;;;;;31.00;8.57;;;;;;;3.06;100.00;103120.75;5023242;28;20033;-60
2022/01/17 03:56:13;;;;;;;33.77;9.77;;;;;;;3.01;100.00;103125.34;5026055;28;20038;-61
2022/01/17 03:58:38;;;;;;;24.30;7.70;;;;;;;2.89;100.00;103117.97;5025746;28;20373;-60
2022/01/17 04:01:04;;;;;;;26.93;9.03;;;;;;;2.72;99.83;103121.31;5021630;28;20053;-61
2022/01/17 04:03:30;;;;;;;19.37;7.47;;;;;;;2.72;99.87;103137.91;5024292;28;20052;-61
2022/01/17 04:05:56;;;;;;;24.17;8.07;;;;;;;2.65;99.65;103133.00;5027316;28;20465;-61
2022/01/17 04:08:21;;;;;;;21.83;8.53;;;;;;;2.57;99.59;103128.03;5026774;28;20132;-60
2022/01/17 04:10:47;;;;;;;30.43;9.60;;;;;;;2.58;99.81;103127.13;5026873;28;20373;-61
2022/01/17 04:13:12;;;;;;;27.97;8.57;;;;;;;2.58;99.98;103128.88;5025794;28;20475;-60
2022/01/17 04:15:38;;;;;;;23.77;8.40;;;;;;;2.60;100.00;103125.31;5027367;28;20041;-60
2022/01/17 04:18:05;;;;;;;28.63;9.70;;;;;;;2.67;100.00;103126.75;5026402;28;20036;-61
2022/01/17 04:20:31;;;;;;;24.87;9.13;;;;;;;2.75;100.00;103129.06;5025527;28;20586;-59
2022/01/17 04:23:03;;;;;;;26.73;9.17;;;;;;;2.79;100.00;103126.25;5027297;28;20113;-60
2022/01/17 04:25:31;;;;;;;30.63;9.13;;;;;;;2.82;100.00;103127.03;5027336;28;20072;-60
2022/01/17 04:27:58;;;;;;;22.47;8.30;;;;;;;2.82;100.00;103140.16;5021713;28;20034;-60
2022/01/17 04:30:25;;;;;;;22.03;8.53;;;;;;;2.78;100.00;103145.53;5022766;28;20040;-60
2022/01/17 04:32:50;;;;;;;23.83;8.33;;;;;;;2.76;100.00;103136.88;5023801;28;20084;-60
2022/01/17 04:35:20;;;;;;;27.17;8.63;;;;;;;2.78;100.00;103144.66;5025107;28;20492;-60
2022/01/17 04:37:48;;;;;;;21.03;7.60;;;;;;;2.73;100.00;103142.25;5021587;28;20032;-60
2022/01/17 04:40:13;;;;;;;23.17;7.30;;;;;;;2.72;100.00;103135.28;5025622;28;20104;-60
2022/01/17 04:42:44;;;;;;;29.53;7.73;;;;;;;2.73;100.00;103131.75;5026691;28;20464;-61
2022/01/17 04:45:11;;;;;;;23.17;7.13;;;;;;;2.71;100.00;103135.34;5026661;28;20025;-60
2022/01/17 04:47:39;;;;;;;24.30;7.80;;;;;;;2.67;100.00;103137.25;5023088;28;20112;-61
2022/01/17 04:50:09;;;;;;;19.67;7.00;;;;;;;2.67;100.00;103129.38;5023426;28;20501;-60
2022/01/17 04:52:36;;;;;;;24.40;6.87;;;;;;;2.65;100.00;103136.47;5026760;28;20417;-61
2022/01/17 04:55:03;;;;;;;23.83;6.47;;;;;;;2.59;100.00;103143.72;5026886;28;20033;-60
2022/01/17 04:57:28;;;;;;;20.67;6.13;;;;;;;2.54;100.00;103143.91;5029548;28;20421;-60
2022/01/17 04:59:54;;;;;;;20.87;6.23;;;;;;;2.53;100.00;103138.72;5029075;28;20029;-60
2022/01/17 05:02:19;;;;;;;24.03;6.63;;;;;;;2.54;100.00;103148.28;5027365;28;20035;-60
2022/01/17 05:04:45;;;;;;;22.87;6.10;;;;;;;2.51;100.00;103154.50;5018385;28;20111;-60
2022/01/17 05:07:14;;;;;;;20.30;7.23;;;;;;;2.48;100.00;103155.50;5031503;28;20040;-60
2022/01/17 05:09:41;;;;;;;30.02;6.65;;;;;;;2.52;100.00;103160.63;5029083;28;20485;-60
2022/01/17 05:12:08;;;;;;;20.97;6.47;;;;;;;2.56;100.00;103163.03;5031934;28;20029;-60
2022/01/17 05:14:33;;;;;;;24.53;7.00;;;;;;;2.62;100.00;103172.47;5023005;28;20026;-60
2022/01/17 05:17:10;;;;;;;20.77;6.93;;;;;;;2.64;100.00;103168.88;5022465;28;20155;-60
2022/01/17 05:19:48;;;;;;;23.30;6.60;;;;;;;2.66;100.00;103167.03;5022499;28;20024;-61
2022/01/17 05:22:16;;;;;;;27.40;7.30;;;;;;;2.70;100.00;103162.50;5019686;28;20040;-61
2022/01/17 05:24:41;;;;;;;22.30;7.33;;;;;;;2.77;100.00;103161.34;5024764;28;20022;-60
2022/01/17 05:27:06;;;;;;;32.30;8.00;;;;;;;2.85;100.00;103161.00;5031196;28;20037;-60
2022/01/17 05:29:31;;;;;;;22.43;7.50;;;;;;;2.90;100.00;103165.19;5028303;28;20350;-61
2022/01/17 05:31:57;;;;;;;27.10;7.83;;;;;;;2.95;100.00;103165.81;5022434;28;20048;-61
2022/01/17 05:34:22;;;;;;;22.37;6.90;;;;;;;2.96;100.00;103171.94;5029723;28;20572;-60
2022/01/17 05:36:47;;;;;;;20.40;7.30;;;;;;;2.95;100.00;103183.34;5026753;28;20033;-61
2022/01/17 05:39:13;;;;;;;22.27;7.37;;;;;;;2.92;100.00;103183.47;5029054;28;20876;-61
2022/01/17 05:41:38;;;;;;;19.37;7.07;;;;;;;2.90;100.00;103180.06;5029167;28;20535;-60
2022/01/17 05:44:03;;;;;;;26.47;7.83;;;;;;;2.89;100.00;103180.94;5029057;28;20029;-61
2022/01/17 05:46:29;;;;;;;20.40;8.03;;;;;;;2.90;100.00;103180.06;5029845;28;20029;-61
2022/01/17 05:48:54;;;;;;;22.80;8.87;;;;;;;2.93;100.00;103178.16;5028409;28;20025;-60
2022/01/17 05:51:19;;;;;;;23.97;9.67;;;;;;;2.99;100.00;103177.06;5026284;28;20485;-61
2022/01/17 05:53:44;;;;;;;24.87;9.40;;;;;;;2.98;100.00;103164.84;5030416;28;20029;-60
2022/01/17 05:56:10;;;;;;;28.57;9.50;;;;;;;3.00;100.00;103171.72;5029268;28;20740;-61
2022/01/17 05:58:35;;;;;;;28.43;10.73;;;;;;;3.04;100.00;103178.56;5028556;28;20040;-61
2022/01/17 06:01:00;;;;;;;26.63;11.00;;;;;;;3.08;100.00;103182.75;5027456;28;20021;-61
2022/01/17 06:03:26;;;;;;;30.70;12.07;;;;;;;3.16;100.00;103176.31;5028954;28;20025;-59
2022/01/17 06:05:53;;;;;;;27.37;12.07;;;;;;;3.23;100.00;103175.16;5028310;28;20032;-60
2022/01/17 06:08:18;;;;;;;35.07;13.03;;;;;;;3.24;100.00;103177.72;5028728;28;20403;-61
2022/01/17 06:10:44;;;;;;;30.63;13.13;;;;;;;3.24;100.00;103177.72;5028321;28;20500;-61
2022/01/17 06:13:09;;;;;;;43.70;14.70;;;;;;;3.29;100.00;103173.13;5028513;28;20033;-60
2022/01/17 06:15:34;;;;;;;42.10;15.03;;;;;;;3.28;100.00;103171.41;5028669;28;20075;-60
2022/01/17 06:18:00;;;;;;;42.77;15.60;;;;;;;3.31;100.00;103181.78;5028419;28;20031;-60
2022/01/17 06:20:25;;;;;;;44.77;16.23;;;;;;;3.37;100.00;103171.00;5028050;28;20021;-60
2022/01/17 06:22:50;;;;;;;36.53;17.03;;;;;;;3.41;100.00;103169.09;5028785;28;20029;-61
2022/01/17 06:25:15;;;;;;;44.47;17.47;;;;;;;3.45;100.00;103188.19;5029159;28;20075;-61
2022/01/17 06:27:41;;;;;;;44.30;17.07;;;;;;;3.43;100.00;103183.00;5028418;28;20424;-60
2022/01/17 06:30:07;;;;;;;37.33;16.23;;;;;;;3.47;100.00;103204.75;5021329;28;20080;-61
2022/01/17 06:32:33;;;;;;;35.73;16.67;;;;;;;3.45;100.00;103203.97;5028411;28;20037;-61
2022/01/17 06:34:59;;;;;;;37.87;17.03;;;;;;;3.45;100.00;103204.81;5028549;28;20030;-60
2022/01/17 06:37:24;;;;;;;42.97;17.87;;;;;;;3.47;100.00;103207.38;5028123;28;20501;-61
2022/01/17 06:39:52;;;;;;;36.57;16.60;;;;;;;3.47;100.00;103200.38;5025179;28;20017;-59
2022/01/17 06:42:17;;;;;;;39.30;17.10;;;;;;;3.45;100.00;103188.19;5027905;28;20030;-60
2022/01/17 06:44:43;;;;;;;41.77;16.97;;;;;;;3.48;100.00;103198.59;5027892;28;20028;-60
2022/01/17 06:47:08;;;;;;;46.60;18.60;;;;;;;3.52;100.00;103192.28;5027234;28;20033;-60
2022/01/17 06:49:33;;;;;;;46.33;19.27;;;;;;;3.59;100.00;103191.09;5026390;28;20108;-60
2022/01/17 06:51:59;;;;;;;50.17;19.53;;;;;;;3.68;100.00;103202.03;5028040;28;20108;-60
2022/01/17 06:54:25;;;;;;;44.30;18.57;;;;;;;3.73;100.00;103205.31;5027918;28;20036;-61
2022/01/17 06:56:50;;;;;;;47.63;18.67;;;;;;;3.73;100.00;103209.72;5028046;28;20033;-60
2022/01/17 06:59:15;;;;;;;47.13;18.40;;;;;;;3.69;100.00;103219.50;5026840;28;20495;-60
2022/01/17 07:01:41;;;;;;;38.37;17.77;;;;;;;3.69;100.00;103221.28;5026718;28;20037;-61
2022/01/17 07:04:08;;;;;;;39.40;17.90;;;;;;;3.66;100.00;103224.91;5025065;28;20044;-60
2022/01/17 07:06:33;;;;;;;38.67;18.23;;;;;;;3.66;100.00;103219.66;5028261;28;20476;-61
2022/01/17 07:08:59;;;;;;;46.50;17.80;;;;;;;3.65;100.00;103248.63;5026382;28;20032;-60
2022/01/17 07:11:26;;;;;;;39.73;17.83;;;;;;;3.61;100.00;103236.53;5024441;28;20500;-60
2022/01/17 07:13:51;;;;;;;39.40;17.93;;;;;;;3.62;100.00;103227.75;5026912;28;20239;-61
2022/01/17 07:16:17;;;;;;;37.80;16.47;;;;;;;3.56;100.00;103212.25;5027069;28;20263;-60
2022/01/17 07:18:42;;;;;;;38.07;17.80;;;;;;;3.54;100.00;103214.94;5025665;28;20033;-60
2022/01/17 07:21:07;;;;;;;40.40;17.17;;;;;;;3.52;100.00;103210.69;5026637;28;20067;-60
2022/01/17 07:23:33;;;;;;;36.57;16.77;;;;;;;3.49;100.00;103205.56;5028341;28;20495;-60
2022/01/17 07:25:58;;;;;;;32.67;16.03;;;;;;;3.44;100.00;103210.97;5027393;28;20052;-60
2022/01/17 07:28:24;;;;;;;34.03;16.17;;;;;;;3.43;100.00;103206.66;5028281;28;20364;-60
2022/01/17 07:30:49;;;;;;;36.83;16.10;;;;;;;3.40;100.00;103205.00;5024329;28;20723;-60
2022/01/17 07:33:15;;;;;;;42.37;18.53;;;;;;;3.38;100.00;103209.47;5028910;28;20107;-60
2022/01/17 07:35:40;;;;;;;33.40;17.83;;;;;;;3.39;100.00;103221.69;5028657;28;20029;-60
2022/01/17 07:38:06;;;;;;;40.10;17.83;;;;;;;3.37;100.00;103235.81;5029324;28;20032;-59
2022/01/17 07:40:33;;;;;;;36.83;17.50;;;;;;;3.35;100.00;103240.28;5026353;28;20076;-60
2022/01/17 07:42:58;;;;;;;38.50;17.97;;;;;;;3.31;100.00;103257.94;5032094;28;20025;-61
2022/01/17 07:45:26;;;;;;;35.67;18.50;;;;;;;3.31;100.00;103259.72;5027713;28;20109;-60
2022/01/17 07:50:22;;;;;;;40.63;18.77;;;;;;;3.24;100.00;103264.38;5026578;28;20024;-60
2022/01/17 07:52:49;;;;;;;41.83;19.43;;;;;;;3.20;100.00;103262.78;5027486;28;20025;-60
2022/01/17 07:55:15;;;;;;;42.00;20.10;;;;;;;3.26;100.00;103261.69;5024614;28;20061;-60
2022/01/17 07:57:41;;;;;;;43.37;19.63;;;;;;;3.30;100.00;103261.50;5009019;28;20044;-60
2022/01/17 08:00:09;;;;;;;47.50;19.60;;;;;;;3.34;100.00;103267.47;5008096;28;20496;-61
2022/01/17 08:02:35;;;;;;;41.57;20.60;;;;;;;3.44;100.00;103258.25;5025230;28;20120;-60
2022/01/17 08:05:01;;;;;;;47.80;20.10;;;;;;;3.48;100.00;103264.28;5026487;28;20043;-59
2022/01/17 08:07:26;;;;;;;39.23;20.00;;;;;;;3.50;100.00;103271.16;5028061;28;20024;-60
2022/01/17 08:09:51;;;;;;;39.83;20.33;;;;;;;3.53;100.00;103275.44;5026798;28;20096;-60
2022/01/17 08:12:16;;;;;;;45.10;20.47;;;;;;;3.57;100.00;103284.88;5028820;28;20608;-60
2022/01/17 08:14:42;;;;;;;49.77;21.37;;;;;;;3.66;100.00;103281.84;5028047;28;20499;-60
2022/01/17 08:17:07;;;;;;;50.43;22.93;;;;;;;3.74;100.00;103277.97;5026439;28;20029;-60
2022/01/17 08:19:33;;;;;;;51.83;23.10;;;;;;;3.83;100.00;103289.03;5025733;28;20451;-60
2022/01/17 08:22:03;;;;;;;55.27;23.70;;;;;;;3.89;100.00;103292.22;5027506;28;20022;-60
2022/01/17 08:24:29;;;;;;;53.00;22.97;;;;;;;3.95;100.00;103291.97;5026248;28;20087;-60
2022/01/17 08:26:54;;;;;;;49.60;22.27;;;;;;;4.01;100.00;103282.94;5025591;28;20025;-60
2022/01/17 08:29:20;;;;;;;56.33;23.37;;;;;;;4.09;100.00;103290.50;5020649;28;20394;-60
2022/01/17 08:31:47;;;;;;;57.30;23.80;;;;;;;4.14;100.00;103285.91;5028159;28;20125;-59
2022/01/17 08:34:13;;;;;;;59.73;23.60;;;;;;;4.18;100.00;103287.47;5030164;28;20392;-60
2022/01/17 08:36:39;;;;;;;52.47;23.53;;;;;;;4.20;100.00;103299.63;5030851;28;20087;-60
2022/01/17 08:39:06;;;;;;;51.00;24.20;;;;;;;4.26;100.00;103282.69;5030716;28;20029;-60
2022/01/17 08:41:31;;;;;;;56.67;23.17;;;;;;;4.30;100.00;103284.25;5031075;28;20025;-60
2022/01/17 08:43:57;;;;;;;50.43;21.70;;;;;;;4.33;100.00;103277.09;5031093;28;20034;-60
2022/01/17 08:46:22;;;;;;;49.07;21.60;;;;;;;4.35;100.00;103271.78;5030922;28;20112;-60
2022/01/17 08:48:47;;;;;;;46.77;22.70;;;;;;;4.37;100.00;103256.78;5030244;28;20485;-60
2022/01/17 08:51:13;;;;;;;53.20;22.13;;;;;;;4.42;100.00;103267.94;5030113;28;20018;-60
2022/01/17 08:53:38;;;;;;;49.27;22.20;;;;;;;4.42;100.00;103277.59;5030547;28;20108;-60
2022/01/17 08:56:04;;;;;;;49.33;20.87;;;;;;;4.45;100.00;103280.09;5029277;28;20292;-60
2022/01/17 08:58:30;;;;;;;50.60;20.47;;;;;;;4.51;100.00;103279.81;5027255;28;20021;-60
2022/01/17 09:00:57;;;;;;;50.13;20.43;;;;;;;4.50;100.00;103284.22;5029575;28;20036;-60
2022/01/17 09:03:23;;;;;;;49.70;20.03;;;;;;;4.52;100.00;103295.50;5029879;28;20025;-60
2022/01/17 09:05:49;;;;;;;52.20;19.80;;;;;;;4.55;100.00;103290.09;5029040;28;20100;-60
2022/01/17 09:08:16;;;;;;;49.20;19.33;;;;;;;4.58;100.00;103294.38;5029756;28;20116;-61
2022/01/17 09:10:41;;;;;;;44.00;19.63;;;;;;;4.61;100.00;103297.72;5026912;28;20536;-60
2022/01/17 09:13:07;;;;;;;49.07;18.97;;;;;;;4.63;100.00;103303.78;5030307;28;20105;-60
2022/01/17 09:15:32;;;;;;;47.87;18.57;;;;;;;4.68;100.00;103303.56;5030886;28;20025;-61
2022/01/17 09:17:58;;;;;;;50.20;19.43;;;;;;;4.72;100.00;103313.03;5029751;28;20026;-60
2022/01/17 09:20:24;;;;;;;48.40;17.77;;;;;;;4.76;100.00;103316.34;5029755;28;20140;-60
2022/01/17 09:22:49;;;;;;;45.37;18.63;;;;;;;4.79;100.00;103329.38;5029620;28;20048;-60
2022/01/17 09:25:14;;;;;;;44.77;18.67;;;;;;;4.81;100.00;103323.09;5028826;28;20055;-59
2022/01/17 09:27:41;;;;;;;44.70;18.73;;;;;;;4.84;100.00;103332.63;5025938;28;20411;-60
2022/01/17 09:30:09;;;;;;;43.90;18.40;;;;;;;4.85;100.00;103323.81;5022109;28;20029;-60
2022/01/17 09:32:36;;;;;;;46.97;17.43;;;;;;;4.87;100.00;103321.97;5019191;28;20181;-61
2022/01/17 09:35:01;;;;;;;43.03;17.10;;;;;;;4.87;100.00;103309.66;5029783;28;20038;-60
2022/01/17 09:37:27;;;;;;;42.53;16.70;;;;;;;4.91;100.00;103326.16;5027396;28;20036;-61
2022/01/17 09:39:52;;;;;;;41.63;17.50;;;;;;;4.94;100.00;103324.25;5025521;28;20021;-59
2022/01/17 09:42:17;;;;;;;36.87;16.30;;;;;;;4.96;100.00;103325.03;5025367;28;20534;-61
2022/01/17 09:44:43;;;;;;;39.23;16.47;;;;;;;4.98;100.00;103335.50;5027101;28;20033;-60
2022/01/17 09:47:09;;;;;;;37.93;14.87;;;;;;;5.01;100.00;103345.88;5027129;28;20568;-60
2022/01/17 09:49:57;;;;;;;38.43;15.17;;;;;;;5.02;100.00;103358.13;5025108;28;20033;-61
2022/01/17 09:52:34;;;;;;;41.80;15.20;;;;;;;5.04;100.00;103365.94;5024380;28;20045;-60
2022/01/17 09:55:03;;;;;;;42.87;13.80;;;;;;;5.08;100.00;103373.63;5026872;28;20068;-60
2022/01/17 09:57:30;;;;;;;42.08;14.10;;;;;;;5.09;100.00;103377.97;5030687;28;20485;-60
2022/01/17 09:59:57;;;;;;;39.10;13.43;;;;;;;5.11;100.00;103364.72;5027114;28;20032;-60
2022/01/17 10:02:23;;;;;;;39.47;13.63;;;;;;;5.11;100.00;103384.00;5028740;28;20025;-61
2022/01/17 10:04:48;;;;;;;43.10;13.63;;;;;;;5.12;100.00;103375.19;5026225;28;20033;-61
2022/01/17 10:07:13;;;;;;;36.63;13.77;;;;;;;5.13;100.00;103366.34;5028136;28;20117;-60
2022/01/17 10:09:43;;;;;;;42.20;11.60;;;;;;;5.18;100.00;103376.66;5027263;28;20037;-60
2022/01/17 10:12:11;;;;;;;44.13;12.77;;;;;;;5.17;100.00;103378.44;5029289;28;20677;-61
2022/01/17 10:14:40;;;;;;;38.63;12.07;;;;;;;5.20;100.00;103375.69;5026611;28;20700;-60
2022/01/17 10:17:16;;;;;;;35.90;12.25;;;;;;;5.21;100.00;103374.75;5027692;28;20035;-60
2022/01/17 10:19:43;;;;;;;37.47;10.67;;;;;;;5.25;100.00;103375.47;5024221;28;20813;-61
2022/01/17 10:22:20;;;;;;;41.93;12.40;;;;;;;5.27;100.00;103369.19;5028524;28;20025;-60
2022/01/17 10:30:40;;;;;;;35.10;10.27;;;;;;;5.35;100.00;103379.34;5023853;28;20033;-61
2022/01/17 10:35:37;;;;;;;28.60;9.17;;;;;;;5.44;100.00;103381.53;5028322;28;20025;-60
2022/01/17 10:38:07;;;;;;;37.97;9.23;;;;;;;5.46;100.00;103392.00;5026245;28;20092;-60
2022/01/17 10:40:44;;;;;;;37.43;9.20;;;;;;;5.48;100.00;103388.34;5024857;28;20021;-60
2022/01/17 10:43:33;;;;;;;38.03;9.23;;;;;;;5.53;100.00;103396.91;5027292;28;20025;-59
2022/01/17 10:45:58;;;;;;;36.17;8.23;;;;;;;5.56;100.00;103388.00;5027841;28;20033;-60
2022/01/17 10:48:37;;;;;;;38.43;8.40;;;;;;;5.62;100.00;103400.00;5027640;28;20028;-60
2022/01/17 10:51:04;;;;;;;31.90;8.00;;;;;;;5.62;100.00;103390.31;5017754;28;20025;-59
2022/01/17 10:53:30;;;;;;;40.50;8.10;;;;;;;5.63;100.00;103392.03;5024178;28;20030;-61
2022/01/17 10:55:56;;;;;;;35.83;8.47;;;;;;;5.66;100.00;103398.94;5024634;28;20017;-61
2022/01/17 10:58:29;;;;;;;28.60;7.63;;;;;;;5.69;100.00;103397.00;5027195;28;20032;-60
2022/01/17 11:00:57;;;;;;;29.90;7.97;;;;;;;5.71;100.00;103410.94;5028089;28;20030;-60
2022/01/17 11:03:32;;;;;;;37.57;7.80;;;;;;;5.74;100.00;103404.66;5025643;28;20024;-60
2022/01/17 11:06:02;;;;;;;35.50;8.03;;;;;;;5.74;100.00;103420.50;5025976;28;20087;-61
2022/01/17 11:08:29;;;;;;;37.30;7.87;;;;;;;5.77;100.00;103417.69;5027705;28;20151;-60
2022/01/17 11:10:59;;;;;;;35.57;7.37;;;;;;;5.81;100.00;103421.91;5025096;28;20022;-60
2022/01/17 11:13:28;;;;;;;35.00;7.20;;;;;;;5.84;100.00;103435.81;5037528;28;20028;-60
2022/01/17 11:15:59;;;;;;;28.33;7.50;;;;;;;5.86;100.00;103423.38;5020927;28;20568;-61
2022/01/17 11:18:28;;;;;;;36.33;7.53;;;;;;;5.88;100.00;103429.44;5020112;28;20040;-60
2022/01/17 11:21:00;;;;;;;37.83;6.80;;;;;;;5.94;100.00;103432.72;5015265;28;20033;-60
2022/01/17 11:23:26;;;;;;;33.83;7.27;;;;;;;5.96;100.00;103425.59;5026450;28;20029;-60
2022/01/17 11:25:55;;;;;;;36.43;7.53;;;;;;;5.99;99.90;103409.59;5026970;28;20029;-59
2022/01/17 11:28:29;;;;;;;31.63;7.13;;;;;;;6.04;99.65;103420.78;5025635;28;20105;-60
2022/01/17 11:30:59;;;;;;;39.90;8.23;;;;;;;6.07;99.97;103408.31;5026123;28;20030;-60
2022/01/17 11:33:26;;;;;;;34.27;7.13;;;;;;;6.12;99.81;103401.00;5025438;28;20034;-60
2022/01/17 11:35:52;;;;;;;37.80;7.67;;;;;;;6.16;99.52;103402.56;5028690;28;20095;-60